Time;durP1;ratioP1;P1;durP2;ratioP2;P2;SDS_P1;SDS_P2;PMS_P1;PMS_P2;Temp;Humidity;BMP_temperature;BMP_pressure;BME280_temperature;BME280_humidity;BME280_pressure;Samples;Min_cycle;Max_cycle;Signal;HPM_P1;HPM_P2
2021/09/24 00:00:29;;;;;;;2.80;2.30;;;23.00;53.20;;;;;;6266091;23;20383;-86
2021/09/24 00:02:55;;;;;;;2.50;1.87;;;23.00;53.20;;;;;;6240422;23;20389;-87
2021/09/24 00:05:22;;;;;;;2.20;2.00;;;23.00;53.20;;;;;;6240888;23;20407;-86
2021/09/24 00:07:48;;;;;;;2.07;1.87;;;23.00;53.20;;;;;;6266638;23;20417;-87
2021/09/24 00:10:19;;;;;;;2.43;2.23;;;23.00;53.20;;;;;;6240129;23;20441;-86
2021/09/24 00:12:44;;;;;;;2.60;2.13;;;23.00;53.20;;;;;;6265979;23;20373;-86
2021/09/24 00:15:14;;;;;;;2.63;2.20;;;23.00;53.10;;;;;;6240230;23;20382;-87
2021/09/24 00:17:44;;;;;;;2.20;1.90;;;23.00;53.10;;;;;;6240681;23;20388;-86
2021/09/24 00:20:10;;;;;;;3.13;2.40;;;23.00;53.10;;;;;;6240211;23;20524;-86
2021/09/24 00:22:37;;;;;;;2.50;2.30;;;23.00;53.10;;;;;;6268964;23;20404;-86
2021/09/24 00:25:03;;;;;;;2.30;1.87;;;23.00;53.10;;;;;;6241838;23;20677;-86
2021/09/24 00:27:29;;;;;;;2.33;2.13;;;23.00;53.10;;;;;;6242662;23;20420;-86
2021/09/24 00:29:55;;;;;;;2.13;1.90;;;23.00;53.10;;;;;;6242998;23;20422;-87
2021/09/24 00:32:29;;;;;;;2.50;2.03;;;23.00;53.10;;;;;;6237501;23;20166;-86
2021/09/24 00:34:55;;;;;;;2.83;2.30;;;23.00;53.10;;;;;;6236593;23;20370;-86
2021/09/24 00:37:21;;;;;;;2.27;2.07;;;23.00;53.10;;;;;;6237850;23;20378;-86
2021/09/24 00:39:47;;;;;;;2.93;1.90;;;23.00;53.10;;;;;;6237126;23;20746;-86
2021/09/24 00:42:16;;;;;;;2.10;1.83;;;23.00;53.10;;;;;;6237413;23;20645;-86
2021/09/24 00:44:47;;;;;;;2.00;1.80;;;23.00;53.10;;;;;;6236812;23;20159;-86
2021/09/24 00:47:24;;;;;;;2.03;1.83;;;23.00;53.10;;;;;;6236281;23;20422;-86
2021/09/24 00:49:51;;;;;;;2.17;1.97;;;23.00;53.20;;;;;;6212358;23;20702;-86
2021/09/24 00:52:18;;;;;;;2.27;1.90;;;23.00;53.10;;;;;;6236218;23;20424;-86
2021/09/24 00:54:47;;;;;;;2.37;1.90;;;23.00;53.10;;;;;;6236494;23;20409;-86
2021/09/24 00:57:13;;;;;;;2.30;2.10;;;23.00;53.10;;;;;;6236871;23;20446;-86
2021/09/24 00:59:40;;;;;;;2.40;1.90;;;23.00;53.10;;;;;;6238109;23;20370;-86
2021/09/24 01:02:06;;;;;;;1.83;1.60;;;23.00;53.20;;;;;;6211439;23;20390;-86
2021/09/24 01:04:33;;;;;;;2.10;1.90;;;23.00;53.20;;;;;;6238113;23;20404;-86
2021/09/24 01:07:00;;;;;;;2.53;2.33;;;23.00;53.20;;;;;;6236599;23;20418;-86
2021/09/24 01:09:30;;;;;;;2.00;1.80;;;23.00;53.10;;;;;;6211036;23;20377;-86
2021/09/24 01:11:56;;;;;;;1.80;1.50;;;23.00;53.10;;;;;;6236845;23;20389;-86
2021/09/24 01:14:28;;;;;;;2.47;2.27;;;23.00;53.20;;;;;;6236378;23;20405;-86
2021/09/24 01:20:30;;;;;;;2.50;2.30;;;23.00;53.10;;;;;;6205695;23;20395;-86
2021/09/24 01:23:05;;;;;;;2.30;2.10;;;23.00;53.20;;;;;;6180617;23;20379;-86
2021/09/24 01:28:47;;;;;;;2.33;2.07;;;23.00;53.20;;;;;;6196369;23;20490;-86
2021/09/24 01:31:14;;;;;;;2.20;1.77;;;22.90;53.20;;;;;;6205431;23;20391;-86
2021/09/24 01:33:47;;;;;;;2.60;1.97;;;22.90;53.20;;;;;;6204997;23;20688;-86
2021/09/24 01:36:17;;;;;;;2.23;1.70;;;22.90;53.20;;;;;;6180681;23;20447;-86
2021/09/24 01:38:43;;;;;;;2.73;2.10;;;22.90;53.20;;;;;;6179924;23;20430;-86
2021/09/24 01:41:09;;;;;;;2.10;1.90;;;22.90;53.20;;;;;;6180405;23;20479;-86
2021/09/24 01:43:37;;;;;;;2.53;2.03;;;22.90;53.20;;;;;;6205748;23;20367;-86
2021/09/24 01:46:04;;;;;;;2.00;1.80;;;22.90;53.20;;;;;;6180555;23;20386;-86
2021/09/24 01:48:32;;;;;;;2.10;1.80;;;22.90;53.20;;;;;;6180048;23;20419;-86
2021/09/24 01:50:58;;;;;;;2.90;2.60;;;22.90;53.20;;;;;;6205205;23;20796;-86
2021/09/24 01:53:24;;;;;;;2.20;2.00;;;22.90;53.20;;;;;;6179996;23;20379;-87
2021/09/24 01:55:51;;;;;;;1.80;1.70;;;22.90;53.20;;;;;;6180442;23;20390;-86
2021/09/24 01:58:17;;;;;;;2.20;2.00;;;22.90;53.80;;;;;;6234715;23;20161;-86
2021/09/24 02:00:48;;;;;;;2.03;1.63;;;22.90;53.20;;;;;;6237130;23;20386;-86
2021/09/24 02:03:14;;;;;;;2.20;1.80;;;22.90;53.20;;;;;;6236461;23;20378;-87
2021/09/24 02:05:43;;;;;;;2.40;2.00;;;22.90;53.20;;;;;;6235787;23;20390;-86
2021/09/24 02:08:09;;;;;;;1.80;1.70;;;22.90;53.20;;;;;;6236852;23;20190;-86
2021/09/24 02:10:34;;;;;;;2.60;2.23;;;22.90;53.20;;;;;;6236742;23;20398;-86
2021/09/24 02:13:03;;;;;;;2.70;1.97;;;22.90;53.20;;;;;;6237461;23;20143;-86
2021/09/24 02:15:29;;;;;;;2.13;1.93;;;22.90;53.20;;;;;;6236097;23;20382;-85
2021/09/24 02:17:56;;;;;;;2.43;1.80;;;22.90;53.20;;;;;;6236219;23;20417;-86
2021/09/24 02:20:22;;;;;;;2.60;2.10;;;22.90;53.20;;;;;;6236251;23;20382;-86
2021/09/24 02:22:48;;;;;;;2.30;1.90;;;22.90;53.20;;;;;;6210973;23;20398;-86
2021/09/24 02:25:14;;;;;;;1.97;1.80;;;22.90;53.20;;;;;;6236010;23;20469;-86
2021/09/24 02:27:40;;;;;;;1.90;1.70;;;22.90;53.20;;;;;;6235587;23;20422;-86
2021/09/24 02:30:06;;;;;;;1.93;1.73;;;22.90;53.30;;;;;;6210392;23;20165;-86
2021/09/24 02:32:33;;;;;;;1.87;1.77;;;22.90;53.30;;;;;;6240286;23;20397;-86
2021/09/24 02:35:00;;;;;;;1.90;1.80;;;22.90;53.30;;;;;;6267754;23;20744;-86
2021/09/24 02:37:26;;;;;;;2.17;1.97;;;22.90;53.30;;;;;;6216431;23;20700;-86
2021/09/24 02:39:52;;;;;;;2.40;2.10;;;22.90;53.30;;;;;;6267225;23;20465;-86
2021/09/24 02:42:18;;;;;;;2.03;1.70;;;22.90;53.30;;;;;;6267788;23;20458;-86
2021/09/24 02:44:43;;;;;;;2.20;2.00;;;22.90;53.30;;;;;;6240462;23;20386;-86
2021/09/24 02:47:09;;;;;;;2.23;1.97;;;22.90;53.30;;;;;;6240555;23;20508;-86
2021/09/24 02:49:41;;;;;;;1.57;1.47;;;22.90;53.90;;;;;;6240450;23;20147;-86
2021/09/24 02:52:08;;;;;;;2.40;1.87;;;22.90;53.30;;;;;;6240178;23;20522;-86
2021/09/24 02:54:34;;;;;;;1.70;1.60;;;22.90;53.30;;;;;;6240892;23;20405;-85
2021/09/24 02:57:00;;;;;;;2.33;2.13;;;22.90;53.30;;;;;;6267207;23;20858;-85
2021/09/24 02:59:26;;;;;;;2.30;1.77;;;22.80;53.20;;;;;;6267303;23;20396;-86
2021/09/24 03:01:55;;;;;;;2.40;2.20;;;22.90;53.30;;;;;;6240855;23;20407;-86
2021/09/24 03:04:21;;;;;;;2.20;2.00;;;22.90;53.30;;;;;;6240750;23;20384;-85
2021/09/24 03:06:52;;;;;;;1.90;1.80;;;22.90;53.30;;;;;;6240411;23;20444;-86
2021/09/24 03:09:18;;;;;;;1.97;1.70;;;22.90;53.40;;;;;;6267827;23;20358;-86
2021/09/24 03:11:44;;;;;;;2.47;2.00;;;22.90;53.30;;;;;;6215686;23;20388;-85
2021/09/24 03:14:10;;;;;;;2.10;1.90;;;22.80;53.30;;;;;;6240489;23;20396;-86
2021/09/24 03:16:41;;;;;;;2.27;2.07;;;22.90;53.30;;;;;;6239719;23;20378;-86
2021/09/24 03:19:09;;;;;;;2.23;2.03;;;22.90;53.30;;;;;;6267659;23;20138;-86
2021/09/24 03:21:36;;;;;;;1.90;1.70;;;22.90;53.30;;;;;;6240750;23;20385;-87
2021/09/24 03:24:05;;;;;;;1.80;1.70;;;22.90;53.40;;;;;;6240178;23;20389;-86
2021/09/24 03:26:35;;;;;;;1.90;1.80;;;22.90;53.40;;;;;;6265963;23;20404;-86
2021/09/24 03:29:01;;;;;;;1.97;1.63;;;22.90;53.40;;;;;;6240272;23;20377;-86
2021/09/24 03:31:27;;;;;;;2.10;1.90;;;22.90;53.40;;;;;;6241029;23;20397;-86
2021/09/24 03:33:53;;;;;;;2.03;1.50;;;22.80;53.90;;;;;;6240666;23;20412;-86
2021/09/24 03:36:19;;;;;;;2.00;1.80;;;22.80;53.40;;;;;;6240401;23;20832;-86
2021/09/24 03:38:45;;;;;;;2.30;2.00;;;22.90;53.40;;;;;;6239861;23;20380;-86
2021/09/24 03:41:14;;;;;;;1.80;1.70;;;22.80;53.30;;;;;;6266475;23;20393;-86
2021/09/24 03:43:39;;;;;;;1.70;1.60;;;22.80;53.30;;;;;;6240764;23;20176;-86
2021/09/24 03:46:05;;;;;;;2.60;2.17;;;22.80;53.30;;;;;;6266581;23;20373;-86
2021/09/24 03:48:31;;;;;;;2.40;2.20;;;22.80;53.40;;;;;;6240027;23;20185;-86
2021/09/24 03:50:58;;;;;;;2.63;2.17;;;22.80;53.30;;;;;;6240336;23;20227;-86
2021/09/24 03:56:46;;;;;;;2.13;1.93;;;22.80;53.30;;;;;;6266908;23;20381;-86
2021/09/24 03:59:13;;;;;;;2.47;1.97;;;22.80;53.40;;;;;;6240127;23;20412;-86
2021/09/24 04:01:40;;;;;;;2.17;1.97;;;22.80;53.40;;;;;;6240104;23;20377;-86
2021/09/24 04:04:06;;;;;;;2.40;2.03;;;22.80;53.40;;;;;;6239664;23;20378;-86
2021/09/24 04:06:34;;;;;;;1.70;1.60;;;22.80;53.40;;;;;;6240807;23;20387;-86
2021/09/24 04:09:00;;;;;;;2.00;1.70;;;22.80;53.40;;;;;;6239876;23;20392;-86
2021/09/24 04:11:26;;;;;;;2.30;2.00;;;22.80;53.40;;;;;;6239276;23;20377;-86
2021/09/24 04:13:52;;;;;;;2.40;1.97;;;22.80;53.40;;;;;;6239242;23;20385;-87
2021/09/24 04:16:20;;;;;;;1.90;1.70;;;22.80;53.40;;;;;;6266210;23;20393;-87
2021/09/24 04:18:46;;;;;;;1.97;1.73;;;22.80;53.40;;;;;;6265861;23;20452;-87
2021/09/24 04:21:14;;;;;;;1.87;1.63;;;22.80;53.40;;;;;;6239915;23;20707;-85
2021/09/24 04:30:13;;;;;;;2.13;1.93;;;22.80;53.30;;;;;;6113773;23;20350;-87
2021/09/24 04:32:47;;;;;;;2.20;1.90;;;22.80;53.40;;;;;;6113392;23;20390;-87
2021/09/24 04:35:15;;;;;;;2.20;2.00;;;22.90;53.40;;;;;;6089580;23;20374;-87
2021/09/24 04:37:58;;;;;;;1.50;1.40;;;22.80;53.30;;;;;;6089436;23;20482;-87
2021/09/24 04:40:25;;;;;;;2.13;1.93;;;22.90;53.40;;;;;;6114469;23;20354;-87
2021/09/24 04:43:08;;;;;;;2.50;1.80;;;22.90;53.30;;;;;;6090016;23;20934;-87
2021/09/24 04:45:42;;;;;;;3.30;2.10;;;22.90;53.30;;;;;;6089172;23;20427;-87
2021/09/24 04:48:15;;;;;;;2.00;1.80;;;22.90;53.30;;;;;;6089935;23;20485;-87
2021/09/24 04:50:46;;;;;;;1.93;1.73;;;23.00;53.30;;;;;;6090035;23;20378;-86
2021/09/24 04:53:23;;;;;;;;;;;;;;;;;;;;;
2021/09/24 04:55:50;;;;;;;2.27;2.07;;;23.00;53.30;;;;;;6114474;23;20368;-86
2021/09/24 04:58:19;;;;;;;2.37;2.03;;;23.00;53.30;;;;;;6091007;23;20397;-86
2021/09/24 05:00:58;;;;;;;2.70;2.50;;;23.00;53.30;;;;;;6114055;23;20381;-87
2021/09/24 05:03:34;;;;;;;2.13;1.83;;;23.00;53.20;;;;;;6148408;23;20381;-87
2021/09/24 05:06:04;;;;;;;1.83;1.53;;;23.00;53.20;;;;;;6239498;23;20477;-85
2021/09/24 05:08:42;;;;;;;2.93;1.97;;;23.00;53.20;;;;;;6236364;23;20431;-86
2021/09/24 05:11:08;;;;;;;2.40;2.00;;;23.00;53.20;;;;;;6243009;23;20437;-86
2021/09/24 05:13:39;;;;;;;1.87;1.60;;;23.00;53.20;;;;;;6240884;23;20388;-86
2021/09/24 05:16:05;;;;;;;1.90;1.70;;;23.00;53.20;;;;;;6241591;23;20377;-85
2021/09/24 05:18:39;;;;;;;1.73;1.40;;;23.00;53.20;;;;;;6240378;23;20441;-85
2021/09/24 05:21:08;;;;;;;1.93;1.83;;;23.10;53.30;;;;;;6268527;23;20403;-85
2021/09/24 05:23:44;;;;;;;2.00;1.80;;;23.10;53.30;;;;;;6241220;23;20381;-85
2021/09/24 05:26:22;;;;;;;1.60;1.50;;;23.10;53.20;;;;;;6241339;23;20373;-85
2021/09/24 05:28:59;;;;;;;2.33;2.13;;;23.10;53.30;;;;;;6241714;23;20388;-86
2021/09/24 05:31:33;;;;;;;1.93;1.77;;;23.10;53.30;;;;;;6241298;23;20400;-85
2021/09/24 05:34:08;;;;;;;1.80;1.70;;;23.00;53.10;;;;;;6218059;23;20443;-85
2021/09/24 05:39:31;;;;;;;1.90;1.50;;;23.10;53.30;;;;;;6204896;23;20426;-86
2021/09/24 05:42:02;;;;;;;2.17;1.70;;;23.10;53.30;;;;;;6204834;23;20367;-86
2021/09/24 05:44:34;;;;;;;1.77;1.67;;;23.10;53.30;;;;;;6204687;23;20367;-86
2021/09/24 05:47:12;;;;;;;;;;;;;;;;;;;;;
2021/09/24 05:50:05;;;;;;;;;;;;;;;;;;;;;
2021/09/24 05:52:33;;;;;;;2.70;1.87;;;23.10;53.20;;;;;;6194723;23;20391;-86
2021/09/24 05:55:16;;;;;;;3.00;2.00;;;23.10;53.30;;;;;;6204537;23;20418;-86
2021/09/24 05:57:42;;;;;;;2.30;2.10;;;23.10;53.30;;;;;;6205166;23;20379;-86
2021/09/24 06:00:30;;;;;;;;;;;;;;;;;;;;;
2021/09/24 06:03:09;;;;;;;2.30;2.10;;;23.10;53.30;;;;;;6205124;23;20382;-86
2021/09/24 06:05:49;;;;;;;1.93;1.77;;;23.10;53.30;;;;;;6204584;23;20374;-86
2021/09/24 06:08:18;;;;;;;2.27;2.07;;;23.10;53.30;;;;;;6204717;23;20836;-84
2021/09/24 06:11:10;;;;;;;;;;;;;;;;;;;;;
2021/09/24 06:14:09;;;;;;;;;;;;;;;;;;;;;
2021/09/24 06:20:00;;;;;;;1.97;1.77;;;23.10;53.20;;;;;;6203808;23;20367;-85
2021/09/24 06:22:38;;;;;;;2.50;2.30;;;23.10;53.30;;;;;;6204978;23;20371;-85
2021/09/24 06:25:29;;;;;;;1.77;1.53;;;23.10;53.30;;;;;;6179105;23;20470;-86
2021/09/24 06:28:21;;;;;;;2.10;1.87;;;23.10;53.20;;;;;;6179021;23;20450;-85
2021/09/24 06:31:24;;;;;;;2.93;1.70;;;23.20;53.30;;;;;;6177958;23;20387;-85
2021/09/24 06:34:05;;;;;;;2.53;1.60;;;23.20;53.30;;;;;;6062222;23;20457;-84
2021/09/24 06:36:32;;;;;;;3.67;1.87;;;23.20;53.30;;;;;;6062388;23;20387;-85
2021/09/24 06:39:35;;;;;;;1.77;1.67;;;23.10;53.20;;;;;;6061990;23;20387;-85
2021/09/24 06:42:05;;;;;;;2.20;2.03;;;23.20;53.30;;;;;;6062395;23;20378;-85
2021/09/24 06:44:34;;;;;;;2.40;1.67;;;23.10;53.20;;;;;;6061757;23;20471;-85
2021/09/24 06:47:09;;;;;;;2.20;1.90;;;23.20;53.30;;;;;;6061838;23;20423;-85
2021/09/24 06:49:54;;;;;;;1.70;1.60;;;23.20;53.20;;;;;;6086637;23;20379;-84
2021/09/24 06:52:28;;;;;;;2.00;1.73;;;23.20;53.30;;;;;;6065096;23;20383;-85
2021/09/24 06:54:57;;;;;;;2.03;1.90;;;23.20;53.30;;;;;;6091808;23;20374;-84
2021/09/24 06:57:25;;;;;;;2.20;1.97;;;23.20;53.30;;;;;;6091054;23;20382;-84
2021/09/24 06:59:53;;;;;;;2.40;2.10;;;23.20;53.20;;;;;;6114419;23;20401;-84
2021/09/24 07:02:19;;;;;;;2.10;1.90;;;23.20;53.20;;;;;;6115239;23;20385;-84
2021/09/24 07:04:49;;;;;;;3.03;1.93;;;23.20;53.20;;;;;;6115881;23;20463;-85
2021/09/24 07:07:20;;;;;;;1.83;1.70;;;23.20;53.20;;;;;;6114962;23;20176;-83
2021/09/24 07:09:58;;;;;;;1.70;1.60;;;23.20;53.20;;;;;;6081558;23;20390;-84
2021/09/24 07:13:01;;;;;;;2.23;1.87;;;23.20;53.80;;;;;;6266986;23;20405;-84
2021/09/24 07:15:27;;;;;;;2.37;2.10;;;23.20;53.20;;;;;;6239094;23;20384;-84
2021/09/24 07:18:03;;;;;;;;;;;;;;;;;;;;;
2021/09/24 07:20:40;;;;;;;2.03;1.73;;;23.20;53.20;;;;;;6266899;23;20358;-85
2021/09/24 07:23:26;;;;;;;2.20;1.80;;;23.20;53.30;;;;;;6239057;23;20377;-85
2021/09/24 07:26:09;;;;;;;1.70;1.60;;;23.20;53.30;;;;;;6239830;23;20464;-84
2021/09/24 07:28:46;;;;;;;3.53;1.93;;;23.20;53.20;;;;;;6239659;23;20448;-83
2021/09/24 07:31:25;;;;;;;4.23;2.20;;;23.20;53.30;;;;;;6264241;23;20457;-83
2021/09/24 07:33:55;;;;;;;2.70;1.90;;;23.20;53.30;;;;;;6239463;23;20382;-84
2021/09/24 07:37:08;;;;;;;2.20;2.00;;;23.20;53.30;;;;;;6239386;23;20391;-84
2021/09/24 07:46:37;;;;;;;;;;;;;;;;;;;;;
2021/09/24 07:49:12;;;;;;;2.53;2.33;;;23.20;53.40;;;;;;6113824;23;20375;-85
2021/09/24 07:51:41;;;;;;;2.27;1.83;;;23.20;53.40;;;;;;6090564;23;20389;-85
2021/09/24 07:54:28;;;;;;;2.07;1.80;;;23.20;53.40;;;;;;6089887;23;20390;-85
2021/09/24 07:57:13;;;;;;;2.53;1.97;;;23.20;53.40;;;;;;6069768;23;20386;-85
2021/09/24 07:59:41;;;;;;;2.50;1.83;;;23.20;53.40;;;;;;6091405;23;20389;-85
2021/09/24 08:02:22;;;;;;;4.13;1.93;;;23.20;53.40;;;;;;6089141;23;20401;-84
2021/09/24 08:04:52;;;;;;;2.93;2.63;;;23.20;53.40;;;;;;6115254;23;20366;-84
2021/09/24 08:14:20;;;;;;;5.00;2.77;;;23.20;53.40;;;;;;6028310;23;20351;-84
2021/09/24 08:16:50;;;;;;;2.90;2.30;;;23.20;53.40;;;;;;6074681;23;20378;-85
2021/09/24 08:19:25;;;;;;;2.27;2.07;;;23.20;53.40;;;;;;6143698;23;20165;-85
2021/09/24 08:21:51;;;;;;;3.97;2.40;;;23.20;53.40;;;;;;6118743;23;20395;-85
2021/09/24 08:24:27;;;;;;;2.77;2.33;;;23.20;53.40;;;;;;6143277;23;20376;-85
2021/09/24 08:27:25;;;;;;;;;;;;;;;;;;;;;
2021/09/24 08:30:21;;;;;;;2.73;2.53;;;23.20;53.30;;;;;;6143941;23;20362;-86
2021/09/24 08:33:04;;;;;;;2.77;2.03;;;23.30;53.40;;;;;;6143218;23;20393;-86
2021/09/24 08:39:43;;;;;;;;;;;;;;;;;;;;;
2021/09/24 08:42:25;;;;;;;;;;;;;;;;;;;;;
2021/09/24 09:09:32;;;;;;;;;;;;;;;;;;;;;
2021/09/24 09:12:21;;;;;;;4.43;2.63;;;23.40;53.50;;;;;;5840863;24;20398;-85
2021/09/24 09:15:24;;;;;;;;;;;;;;;;;;;;;
2021/09/24 09:17:58;;;;;;;3.60;2.73;;;23.40;53.50;;;;;;5813884;24;20380;-85
2021/09/24 09:23:26;;;;;;;4.60;2.97;;;23.40;53.50;;;;;;5814718;24;20387;-86
2021/09/24 09:40:07;;;;;;;7.20;3.13;;;23.50;53.50;;;;;;5944912;24;20398;-86
2021/09/24 09:46:24;;;;;;;2.93;2.63;;;23.50;53.60;;;;;;6120648;23;20404;-86
2021/09/24 09:49:43;;;;;;;5.23;3.57;;;23.50;53.60;;;;;;6145251;23;20393;-86
2021/09/24 09:52:19;;;;;;;5.63;2.90;;;23.50;53.60;;;;;;6144597;23;20393;-86
2021/09/24 09:54:50;;;;;;;4.67;3.50;;;23.50;53.60;;;;;;6119617;23;20385;-86
2021/09/24 09:57:45;;;;;;;4.17;2.87;;;23.50;53.60;;;;;;6144172;23;20361;-85
2021/09/24 10:00:23;;;;;;;4.60;3.00;;;23.50;53.60;;;;;;6214871;23;20385;-86
2021/09/24 10:03:05;;;;;;;5.17;2.73;;;23.50;53.50;;;;;;6210868;23;20401;-86
2021/09/24 10:06:20;;;;;;;;;;;;;;;;;;;;;
2021/09/24 10:12:52;;;;;;;5.00;3.10;;;23.60;53.60;;;;;;6205246;23;20390;-84
2021/09/24 10:15:45;;;;;;;;;;;;;;;;;;;;;
2021/09/24 10:18:22;;;;;;;3.63;2.30;;;23.50;53.70;;;;;;6205756;23;20364;-85
2021/09/24 10:20:48;;;;;;;3.53;2.80;;;23.60;53.70;;;;;;6179329;23;20394;-85
2021/09/24 10:23:24;;;;;;;7.30;3.50;;;23.60;53.70;;;;;;6180291;23;20375;-86
2021/09/24 10:26:26;;;;;;;;;;;;;;;;;;;;;
2021/09/24 10:29:46;;;;;;;4.57;2.93;;;23.60;53.60;;;;;;6204476;23;20405;-85
2021/09/24 10:35:54;;;;;;;3.97;2.70;;;23.60;53.60;;;;;;6115777;23;20377;-86
2021/09/24 10:38:29;;;;;;;3.40;2.57;;;23.60;53.70;;;;;;6120833;23;20478;-86
2021/09/24 10:41:03;;;;;;;3.47;2.57;;;23.60;53.70;;;;;;6121047;23;20384;-86
2021/09/24 10:44:05;;;;;;;3.37;2.77;;;23.60;53.70;;;;;;6121978;23;20412;-86
2021/09/24 10:47:05;;;;;;;5.90;3.23;;;23.70;53.70;;;;;;6092443;23;20386;-86
2021/09/24 10:49:35;;;;;;;3.80;3.27;;;23.60;53.60;;;;;;6095272;23;20413;-86
2021/09/24 10:52:38;;;;;;;4.13;3.73;;;23.60;53.70;;;;;;6091991;23;20488;-86
2021/09/24 10:55:09;;;;;;;6.07;4.50;;;23.60;53.70;;;;;;6113648;23;20402;-85
2021/09/24 10:58:06;;;;;;;;;;;;;;;;;;;;;
2021/09/24 11:00:50;;;;;;;4.97;3.77;;;23.60;53.70;;;;;;6115786;23;20377;-86
2021/09/24 11:04:10;;;;;;;;;;;;;;;;;;;;;
2021/09/24 11:14:27;;;;;;;4.30;3.40;;;23.60;53.70;;;;;;6055684;23;20390;-85
2021/09/24 11:17:45;;;;;;;;;;;;;;;;;;;;;
2021/09/24 11:20:58;;;;;;;4.17;3.70;;;23.60;53.70;;;;;;6055961;23;20383;-86
2021/09/24 11:38:41;;;;;;;;;;;;;;;;;;;;;
2021/09/24 12:36:57;;;;;;;5.57;3.50;;;23.40;54.20;;;;;;5861845;24;20382;-86
2021/09/24 12:46:35;;;;;;;3.40;3.10;;;23.40;54.20;;;;;;5971717;23;20437;-86
2021/09/24 12:49:41;;;;;;;3.43;2.90;;;23.40;54.20;;;;;;5970100;24;20392;-86
2021/09/24 12:52:57;;;;;;;3.80;3.20;;;23.40;54.20;;;;;;5975109;23;20384;-86
2021/09/24 13:02:57;;;;;;;3.40;3.10;;;23.40;54.30;;;;;;6146030;23;20372;-86
2021/09/24 13:05:24;;;;;;;3.80;3.13;;;23.40;54.30;;;;;;6231455;23;20408;-86
2021/09/24 13:07:53;;;;;;;3.40;2.67;;;23.30;54.30;;;;;;6232621;23;20424;-86
2021/09/24 13:10:19;;;;;;;2.80;2.60;;;23.40;54.30;;;;;;6233336;23;20381;-86
2021/09/24 13:12:58;;;;;;;3.10;2.80;;;23.40;54.30;;;;;;6232174;23;20464;-87
2021/09/24 13:15:34;;;;;;;4.00;3.60;;;23.40;54.20;;;;;;6231904;23;20388;-86
2021/09/24 13:21:57;;;;;;;2.90;2.70;;;23.40;54.20;;;;;;6259277;23;20353;-86
2021/09/24 13:24:47;;;;;;;3.90;2.80;;;23.40;54.20;;;;;;6232298;23;20389;-86
2021/09/24 13:27:43;;;;;;;;;;;;;;;;;;;;;
2021/09/24 13:33:39;;;;;;;3.80;2.93;;;23.40;54.40;;;;;;6261528;23;20380;-87
2021/09/24 13:36:32;;;;;;;2.60;2.20;;;23.40;54.30;;;;;;6081631;23;20394;-87
2021/09/24 13:39:39;;;;;;;3.60;2.47;;;23.40;54.30;;;;;;6072983;23;20394;-86
2021/09/24 13:43:04;;;;;;;2.70;2.50;;;23.40;54.40;;;;;;6056182;23;20409;-86
2021/09/24 13:46:10;;;;;;;2.70;2.50;;;23.40;54.30;;;;;;6027474;23;20392;-85
2021/09/24 14:09:31;;;;;;;3.40;3.10;;;23.30;54.40;;;;;;5868331;24;20460;-85
2021/09/24 14:12:02;;;;;;;2.87;2.63;;;23.30;54.60;;;;;;5845929;24;20390;-86
2021/09/24 14:15:26;;;;;;;;;;;;;;;;;;;;;
2021/09/24 14:28:40;;;;;;;3.07;2.77;;;23.30;54.40;;;;;;5751934;24;20444;-86
2021/09/24 14:31:10;;;;;;;2.60;2.40;;;23.30;54.50;;;;;;5731835;25;20432;-84
2021/09/24 14:43:46;;;;;;;4.07;2.57;;;23.30;54.40;;;;;;6061752;23;20366;-85
2021/09/24 14:52:45;;;;;;;2.70;2.50;;;23.30;54.40;;;;;;6061613;23;20462;-84
2021/09/24 14:55:33;;;;;;;2.87;2.37;;;23.30;54.50;;;;;;6186870;23;20350;-84
2021/09/24 14:58:09;;;;;;;3.20;2.73;;;23.30;54.40;;;;;;6262185;23;20456;-83
2021/09/24 15:00:42;;;;;;;2.50;2.30;;;23.30;54.50;;;;;;6242427;23;20370;-83
2021/09/24 15:03:21;;;;;;;2.87;2.53;;;23.30;54.40;;;;;;6240067;23;20377;-83
2021/09/24 15:05:49;;;;;;;3.80;3.33;;;23.40;54.50;;;;;;6241280;23;20369;-83
2021/09/24 15:08:24;;;;;;;3.60;2.93;;;23.30;54.40;;;;;;6241547;23;20474;-82
2021/09/24 15:10:54;;;;;;;4.27;2.70;;;23.40;54.50;;;;;;6242095;23;20408;-83
2021/09/24 15:16:43;;;;;;;4.07;3.20;;;23.40;54.40;;;;;;6268385;22;20357;-83
2021/09/24 15:19:14;;;;;;;3.77;3.40;;;23.40;54.50;;;;;;6268262;23;20388;-82
2021/09/24 15:21:40;;;;;;;3.23;2.93;;;23.40;54.50;;;;;;6239842;23;20377;-83
2021/09/24 15:28:26;;;;;;;3.47;3.17;;;23.50;54.60;;;;;;6270431;23;20412;-84
2021/09/24 15:30:55;;;;;;;4.93;2.90;;;23.50;54.60;;;;;;6093872;23;20382;-82
2021/09/24 15:33:32;;;;;;;3.97;3.00;;;23.40;54.50;;;;;;6093963;23;20386;-84
2021/09/24 15:36:06;;;;;;;3.60;3.23;;;23.50;54.60;;;;;;6094109;23;20382;-82
2021/09/24 15:38:34;;;;;;;4.07;3.70;;;23.40;54.60;;;;;;6092591;23;20464;-82
2021/09/24 15:48:15;;;;;;;3.43;3.10;;;23.50;54.60;;;;;;6117070;23;20396;-83
2021/09/24 15:50:46;;;;;;;3.40;3.10;;;23.40;54.50;;;;;;6094274;23;20386;-84
2021/09/24 15:56:50;;;;;;;3.50;3.20;;;23.40;54.50;;;;;;6089149;23;20410;-84
2021/09/24 15:59:23;;;;;;;3.50;3.20;;;23.50;54.60;;;;;;6089522;23;20386;-84
2021/09/24 16:01:55;;;;;;;4.23;3.83;;;23.40;54.60;;;;;;6065659;23;20374;-84
2021/09/24 16:04:56;;;;;;;3.33;3.03;;;23.40;54.50;;;;;;6115925;23;20372;-84
2021/09/24 16:17:40;;;;;;;3.10;2.90;;;23.40;54.50;;;;;;5948820;24;20462;-83
2021/09/24 16:20:17;;;;;;;3.70;3.30;;;23.40;54.50;;;;;;5948229;24;20387;-83
2021/09/24 16:22:43;;;;;;;6.00;4.10;;;23.40;54.60;;;;;;5902109;24;20403;-83
2021/09/24 16:25:10;;;;;;;3.60;3.30;;;23.40;54.60;;;;;;5926626;24;20474;-83
2021/09/24 16:27:41;;;;;;;4.57;4.17;;;23.40;54.50;;;;;;5973001;24;20433;-83
2021/09/24 16:30:14;;;;;;;2.73;2.53;;;23.40;54.50;;;;;;5953372;24;20379;-84
2021/09/24 16:32:49;;;;;;;4.07;3.17;;;23.40;54.40;;;;;;5997656;23;20396;-84
2021/09/24 16:35:19;;;;;;;2.50;2.30;;;23.40;54.40;;;;;;6032882;23;20383;-85
2021/09/24 16:37:46;;;;;;;3.17;2.87;;;23.40;54.30;;;;;;6032494;23;20402;-84
2021/09/24 16:40:22;;;;;;;3.03;2.83;;;23.40;54.40;;;;;;6009406;23;20473;-84
2021/09/24 16:45:56;;;;;;;2.63;2.37;;;23.30;54.30;;;;;;6109424;23;20412;-84
2021/09/24 16:48:29;;;;;;;3.00;2.70;;;23.30;54.40;;;;;;6206263;23;20414;-84
2021/09/24 16:50:57;;;;;;;2.07;1.90;;;23.30;54.30;;;;;;6198912;23;20390;-84
2021/09/24 16:53:24;;;;;;;2.77;2.40;;;23.30;54.30;;;;;;6238319;23;20378;-84
2021/09/24 16:55:56;;;;;;;2.73;2.53;;;23.30;54.30;;;;;;6240015;23;20370;-84
2021/09/24 16:58:39;;;;;;;2.30;2.10;;;23.30;54.40;;;;;;6239924;23;20380;-84
2021/09/24 17:01:07;;;;;;;2.37;2.17;;;23.20;54.20;;;;;;6189706;23;20398;-83
2021/09/24 17:03:45;;;;;;;2.03;1.83;;;23.20;54.30;;;;;;6190272;23;20371;-83
2021/09/24 17:06:11;;;;;;;2.20;2.00;;;23.20;54.30;;;;;;6215674;23;20353;-83
2021/09/24 17:08:38;;;;;;;2.60;2.40;;;23.20;54.30;;;;;;6190021;23;20406;-83
2021/09/24 17:11:11;;;;;;;2.53;2.07;;;23.20;54.30;;;;;;6241383;23;20377;-83
2021/09/24 17:13:37;;;;;;;3.10;2.70;;;23.20;54.40;;;;;;6215523;23;20422;-83
2021/09/24 17:16:05;;;;;;;2.90;2.67;;;23.20;54.40;;;;;;6241171;23;20370;-83
2021/09/24 17:18:39;;;;;;;3.13;2.23;;;23.20;54.40;;;;;;6214973;23;20418;-83
2021/09/24 17:21:14;;;;;;;2.77;2.57;;;23.20;54.40;;;;;;6214392;23;20366;-83
2021/09/24 17:23:45;;;;;;;2.60;2.40;;;23.20;54.40;;;;;;6218062;23;20366;-83
2021/09/24 17:33:10;;;;;;;2.60;2.40;;;23.20;54.60;;;;;;6209213;23;20371;-83
2021/09/24 17:35:53;;;;;;;2.67;2.47;;;23.10;54.50;;;;;;6183765;23;20390;-83
2021/09/24 17:38:19;;;;;;;3.23;2.70;;;23.10;54.60;;;;;;6183883;23;20367;-83
2021/09/24 17:40:53;;;;;;;2.70;2.50;;;23.10;54.60;;;;;;6184332;23;20371;-83
2021/09/24 17:43:28;;;;;;;3.00;2.57;;;23.10;55.20;;;;;;6184207;23;20436;-83
2021/09/24 17:45:58;;;;;;;3.10;2.70;;;23.10;54.60;;;;;;6180221;23;20402;-84
2021/09/24 17:48:43;;;;;;;2.50;2.30;;;23.00;54.60;;;;;;6183590;23;20422;-84
2021/09/24 17:51:14;;;;;;;2.67;2.47;;;23.10;54.60;;;;;;6203135;23;20484;-84
2021/09/24 17:53:43;;;;;;;2.73;2.30;;;23.00;54.60;;;;;;6182234;23;20387;-84
2021/09/24 17:56:12;;;;;;;2.83;2.63;;;23.00;54.60;;;;;;6183201;23;20379;-83
2021/09/24 17:58:50;;;;;;;2.53;2.20;;;23.10;54.70;;;;;;6182339;23;20387;-83
2021/09/24 18:01:23;;;;;;;2.63;2.43;;;23.00;54.60;;;;;;6183044;23;20411;-85
2021/09/24 18:03:51;;;;;;;2.93;2.40;;;23.00;54.60;;;;;;6203436;23;20424;-83
2021/09/24 18:06:18;;;;;;;2.90;2.70;;;23.00;54.70;;;;;;6243862;23;20385;-85
2021/09/24 18:08:43;;;;;;;2.60;2.40;;;23.00;54.70;;;;;;6244179;23;20432;-83
2021/09/24 18:11:12;;;;;;;3.17;2.87;;;23.00;54.70;;;;;;6269808;23;20362;-85
2021/09/24 18:13:38;;;;;;;3.23;2.50;;;23.00;54.70;;;;;;6244051;23;20147;-83
2021/09/24 18:16:04;;;;;;;3.37;2.70;;;23.00;54.70;;;;;;6243955;23;20365;-83
2021/09/24 18:18:30;;;;;;;3.40;2.83;;;23.00;54.70;;;;;;6270108;23;20373;-84
2021/09/24 18:20:58;;;;;;;4.57;2.90;;;23.00;54.70;;;;;;6243154;23;20381;-85
2021/09/24 18:23:24;;;;;;;3.33;2.43;;;23.00;54.80;;;;;;6270513;23;20147;-85
2021/09/24 18:25:52;;;;;;;3.00;2.80;;;23.00;54.80;;;;;;6243817;23;20378;-84
2021/09/24 18:28:21;;;;;;;2.70;2.50;;;23.00;54.80;;;;;;6243557;23;20449;-84
2021/09/24 18:30:55;;;;;;;2.87;2.57;;;23.00;54.80;;;;;;6217773;23;20378;-84